ZBAA/PEK METAR and TAF weather

Enter ICAO airport designator
Station Type Date Time Source
ZBAA METAR 2021/02/27 21:00 UTC NOAA

ZBAA 272100Z VRB02MPS 7000 -RA BKN040 05/M03 Q1023 NOSIG


Station Type Date Time Source
ZBAA Decoded METAR 2021/02/27 21:00 UTC NOAA

Beijing, China (ZBAA) 39-56N 116-17E 55M
Feb 27, 2021 - 04:00 PM EST / 2021.02.27 2100 UTC
Wind: Variable at 4 MPH (4 KT):0
Visibility: 4 mile(s):0
Sky conditions: mostly cloudy
Weather: light rain
Temperature: 41 F (5 C)
Dew Point: 26 F (-3 C)
Relative Humidity: 56%
Pressure (altimeter): 30.21 in. Hg (1023 hPa)
ob: ZBAA 272100Z VRB02MPS 7000 -RA BKN040 05/M03 Q1023 NOSIG
cycle: 21

Station Type Date Time Source
ZBAA TAF 2021/02/27 18:03 UTC NOAA

TAF TAF ZBAA 271502Z 2718/2818 08004MPS 3500 BR NSC TX06/2807Z TNM02/2721Z
TEMPO 2721/2803 2700 -SNRA BR
BECMG 2812/2813 2700 -SN BR

Example: see airport list